Time;durP1;ratioP1;P1;durP2;ratioP2;P2;SDS_P1;SDS_P2;PMS_P1;PMS_P2;Temp;Humidity;BMP_temperature;BMP_pressure;BME280_temperature;BME280_humidity;BME280_pressure;Samples;Min_cycle;Max_cycle;Signal;HPM_P1;HPM_P2
2021/07/08 00:02:26;;;;;;;15.83;11.05;;;;;;;17.60;92.67;95110.58;1679572;83;21023;-55
2021/07/08 00:04:53;;;;;;;18.90;10.95;;;;;;;17.61;92.52;95106.58;1652077;86;21490;-54
2021/07/08 00:07:21;;;;;;;13.75;10.18;;;;;;;17.58;92.47;95115.25;1683967;83;21019;-55
2021/07/08 00:09:48;;;;;;;15.00;9.05;;;;;;;17.57;92.47;95119.29;1657918;86;21124;-56
2021/07/08 00:12:15;;;;;;;14.00;10.43;;;;;;;17.56;92.48;95117.76;1678910;84;21176;-56
2021/07/08 00:14:41;;;;;;;15.48;10.93;;;;;;;17.55;92.48;95118.23;1690375;83;21612;-56
2021/07/08 00:17:08;;;;;;;17.37;10.43;;;;;;;17.52;92.47;95121.98;1689460;83;21446;-54
2021/07/08 00:19:36;;;;;;;20.90;11.50;;;;;;;17.45;92.32;95118.97;1652494;85;21483;-55
2021/07/08 00:22:05;;;;;;;18.10;10.70;;;;;;;17.43;92.21;95120.72;1656924;85;21594;-55
2021/07/08 00:24:32;;;;;;;17.07;10.43;;;;;;;17.43;92.36;95118.69;1655656;84;21133;-54
2021/07/08 00:26:58;;;;;;;16.85;10.85;;;;;;;17.46;92.60;95116.33;1683949;84;21491;-55
2021/07/08 00:29:26;;;;;;;20.50;11.15;;;;;;;17.47;92.35;95121.28;1660089;84;21608;-53
2021/07/08 00:31:52;;;;;;;22.00;9.88;;;;;;;17.47;92.33;95124.06;1681085;84;21589;-54
2021/07/08 00:34:19;;;;;;;24.63;11.05;;;;;;;17.46;92.37;95123.92;1658856;85;21025;-56
2021/07/08 00:36:47;;;;;;;18.95;9.98;;;;;;;17.48;92.64;95125.59;1652542;84;21124;-55
2021/07/08 00:39:15;;;;;;;17.98;10.13;;;;;;;17.47;92.85;95118.50;1705803;82;21509;-55
2021/07/08 00:41:43;;;;;;;18.12;10.10;;;;;;;17.46;92.99;95117.72;1717873;83;21358;-55
2021/07/08 00:44:09;;;;;;;15.72;10.15;;;;;;;17.46;92.96;95112.80;1683509;83;21027;-55
2021/07/08 00:46:36;;;;;;;19.87;11.12;;;;;;;17.46;92.82;95111.41;1703373;83;21029;-55
2021/07/08 00:49:05;;;;;;;17.07;10.23;;;;;;;17.50;92.60;95111.96;1707687;84;21123;-55
2021/07/08 00:51:32;;;;;;;17.40;10.50;;;;;;;17.52;92.30;95106.68;1706180;83;21054;-56
2021/07/08 00:53:59;;;;;;;13.88;9.95;;;;;;;17.48;92.11;95109.66;1681239;83;21094;-55
2021/07/08 00:56:33;;;;;;;18.62;10.93;;;;;;;17.44;91.93;95108.34;1684341;83;21510;-55
2021/07/08 00:59:07;;;;;;;17.50;10.10;;;;;;;17.37;91.95;95104.55;1645504;85;20987;-55
2021/07/08 01:01:35;;;;;;;19.25;10.48;;;;;;;17.34;92.22;95106.30;1701312;83;20999;-55
2021/07/08 01:04:02;;;;;;;17.07;11.12;;;;;;;17.38;92.51;95101.30;1702885;83;21071;-56
2021/07/08 01:06:31;;;;;;;15.23;10.93;;;;;;;17.45;92.60;95109.23;1707804;84;21000;-56
2021/07/08 01:09:00;;;;;;;23.90;12.65;;;;;;;17.51;92.45;95107.93;1707714;84;20992;-56
2021/07/08 01:11:27;;;;;;;18.20;11.12;;;;;;;17.52;92.48;95106.68;1703217;82;20980;-55
2021/07/08 01:13:55;;;;;;;23.35;13.72;;;;;;;17.53;92.72;95109.60;1706113;83;21215;-56
2021/07/08 01:16:24;;;;;;;18.65;11.53;;;;;;;17.53;92.98;95112.38;1704842;83;21047;-55
2021/07/08 01:18:52;;;;;;;16.45;10.18;;;;;;;17.56;92.97;95112.80;1707477;83;21104;-55
2021/07/08 01:21:32;;;;;;;15.80;10.20;;;;;;;17.52;92.39;95115.02;1707438;83;21000;-56
2021/07/08 01:24:02;;;;;;;30.25;11.68;;;;;;;17.47;91.97;95111.55;1701291;83;21588;-55
2021/07/08 01:26:29;;;;;;;32.85;13.72;;;;;;;17.41;91.73;95109.28;1705795;82;21143;-55
2021/07/08 01:28:56;;;;;;;24.32;13.08;;;;;;;17.37;91.85;95107.33;1694406;82;21133;-56
2021/07/08 01:31:24;;;;;;;43.20;15.18;;;;;;;17.35;92.25;95112.00;1722702;83;21087;-55
2021/07/08 01:33:51;;;;;;;36.25;15.98;;;;;;;17.34;92.68;95110.47;1703308;82;21541;-55
2021/07/08 01:36:18;;;;;;;31.60;13.40;;;;;;;17.33;93.06;95110.30;1700795;82;21655;-55
2021/07/08 01:38:45;;;;;;;20.05;13.05;;;;;;;17.30;93.40;95109.84;1710801;83;21135;-55
2021/07/08 01:41:12;;;;;;;25.05;13.53;;;;;;;17.27;93.62;95112.84;1703321;82;21658;-53
2021/07/08 01:43:40;;;;;;;24.10;12.40;;;;;;;17.24;93.82;95108.24;1705483;83;20984;-55
2021/07/08 01:46:10;;;;;;;23.40;13.83;;;;;;;17.24;94.01;95108.24;1713699;82;21538;-55
2021/07/08 01:48:37;;;;;;;17.80;11.45;;;;;;;17.24;94.02;95112.42;1687738;83;20968;-54
2021/07/08 01:51:08;;;;;;;25.30;10.50;;;;;;;17.23;93.95;95103.91;1704941;83;21144;-53
2021/07/08 01:53:35;;;;;;;14.43;10.63;;;;;;;17.20;93.81;95105.65;1707130;84;21113;-54
2021/07/08 01:56:02;;;;;;;30.60;13.83;;;;;;;17.18;93.83;95105.36;1699327;82;21057;-56
2021/07/08 01:58:29;;;;;;;25.25;13.65;;;;;;;17.16;94.05;95104.30;1712730;82;21040;-55
2021/07/08 02:00:56;;;;;;;26.70;13.53;;;;;;;17.16;94.48;95106.47;1705544;83;21030;-55
2021/07/08 02:03:23;;;;;;;34.05;14.50;;;;;;;17.15;94.78;95104.16;1682609;82;21242;-55
2021/07/08 02:05:50;;;;;;;27.70;14.50;;;;;;;17.16;95.13;95108.47;1703875;82;20984;-54
2021/07/08 02:08:17;;;;;;;28.40;13.65;;;;;;;17.19;95.50;95109.68;1707724;83;20992;-54
2021/07/08 02:10:45;;;;;;;24.55;13.38;;;;;;;17.26;95.64;95114.09;1705469;83;21163;-54
2021/07/08 02:13:13;;;;;;;23.32;14.55;;;;;;;17.31;95.62;95112.02;1699398;82;21083;-54
2021/07/08 02:15:40;;;;;;;27.65;15.80;;;;;;;17.38;95.58;95106.86;1707768;83;21141;-54
2021/07/08 02:18:06;;;;;;;23.80;14.70;;;;;;;17.43;95.38;95111.73;1708808;83;21519;-54
2021/07/08 02:20:33;;;;;;;24.05;13.48;;;;;;;17.48;95.20;95111.69;1674581;82;21190;-55
2021/07/08 02:23:00;;;;;;;24.47;15.05;;;;;;;17.53;95.18;95119.34;1703501;83;21026;-55
2021/07/08 02:25:26;;;;;;;27.60;15.63;;;;;;;17.55;94.95;95116.23;1703956;81;21071;-55
2021/07/08 02:27:53;;;;;;;23.95;15.15;;;;;;;17.58;95.04;95119.42;1707616;83;21559;-55
2021/07/08 02:30:23;;;;;;;28.05;14.87;;;;;;;17.62;94.77;95118.59;1707938;82;21416;-55
2021/07/08 02:32:52;;;;;;;21.30;13.28;;;;;;;17.65;94.58;95118.27;1666119;82;20961;-54
2021/07/08 02:35:20;;;;;;;24.65;13.78;;;;;;;17.65;94.41;95123.83;1703998;83;21521;-54
2021/07/08 02:37:47;;;;;;;21.73;13.70;;;;;;;17.64;94.35;95123.69;1657071;85;20986;-55
2021/07/08 02:40:18;;;;;;;20.08;13.58;;;;;;;17.62;94.47;95122.77;1647863;85;21138;-54
2021/07/08 02:42:51;;;;;;;21.73;13.45;;;;;;;17.63;94.72;95123.55;1684030;83;20998;-55
2021/07/08 02:45:22;;;;;;;17.85;12.93;;;;;;;17.67;94.89;95125.50;1660935;85;21091;-54
2021/07/08 02:47:49;;;;;;;19.30;12.30;;;;;;;17.71;94.96;95124.06;1679699;85;21027;-55
2021/07/08 02:50:19;;;;;;;19.50;12.88;;;;;;;17.77;94.99;95132.47;1654439;85;21589;-55
2021/07/08 02:52:46;;;;;;;31.68;12.07;;;;;;;17.83;95.07;95131.94;1676830;85;21782;-56
2021/07/08 02:55:14;;;;;;;22.22;14.07;;;;;;;17.89;95.07;95132.17;1626454;87;21007;-54
2021/07/08 02:57:41;;;;;;;27.45;14.65;;;;;;;17.94;94.71;95126.52;1675636;85;20975;-54
2021/07/08 03:00:10;;;;;;;25.37;13.43;;;;;;;17.95;94.06;95133.61;1657867;86;21038;-55
2021/07/08 03:02:37;;;;;;;27.90;13.98;;;;;;;17.93;94.12;95128.55;1675551;84;21019;-54
2021/07/08 03:05:05;;;;;;;25.00;13.95;;;;;;;17.92;94.02;95132.58;1658074;85;21504;-54
2021/07/08 03:07:34;;;;;;;26.42;13.65;;;;;;;17.95;94.24;95135.00;1678295;85;21092;-54
2021/07/08 03:10:01;;;;;;;21.80;12.75;;;;;;;17.99;93.92;95134.20;1655632;86;20990;-55
2021/07/08 03:12:28;;;;;;;21.23;12.85;;;;;;;17.99;93.81;95142.55;1683760;83;21479;-54
2021/07/08 03:14:55;;;;;;;18.90;12.98;;;;;;;18.02;93.80;95146.50;1655596;85;21025;-55
2021/07/08 03:17:22;;;;;;;25.90;13.25;;;;;;;18.02;93.50;95146.50;1677569;85;21129;-55
2021/07/08 03:19:48;;;;;;;25.45;14.03;;;;;;;18.03;93.63;95151.46;1652381;85;21113;-54
2021/07/08 03:22:15;;;;;;;25.00;12.88;;;;;;;18.00;93.41;95149.66;1707355;83;21079;-54
2021/07/08 03:24:42;;;;;;;24.12;14.07;;;;;;;17.97;93.58;95154.80;1707824;83;21528;-54
2021/07/08 03:27:09;;;;;;;33.53;14.23;;;;;;;18.00;93.85;95158.01;1674363;83;21019;-55
2021/07/08 03:29:36;;;;;;;23.90;13.80;;;;;;;18.04;93.56;95158.56;1707076;83;21131;-55
2021/07/08 03:32:04;;;;;;;22.65;14.23;;;;;;;18.09;93.88;95168.39;1677340;84;21573;-55
2021/07/08 03:34:31;;;;;;;24.43;14.50;;;;;;;18.15;93.58;95167.08;1665847;84;21046;-58
2021/07/08 03:37:01;;;;;;;49.53;20.90;;;;;;;18.20;93.49;95162.95;1710502;82;21078;-57
2021/07/08 03:39:28;;;;;;;39.85;19.32;;;;;;;18.27;93.24;95167.52;1681074;83;20996;-58
2021/07/08 03:41:55;;;;;;;23.92;14.15;;;;;;;18.29;93.02;95166.41;1707589;83;21051;-58
2021/07/08 03:44:22;;;;;;;22.32;13.03;;;;;;;18.35;93.17;95167.27;1708321;83;21090;-59
2021/07/08 03:46:48;;;;;;;18.32;12.70;;;;;;;18.42;92.99;95168.23;1700307;82;21110;-58
2021/07/08 03:49:15;;;;;;;21.62;13.18;;;;;;;18.49;92.58;95176.16;1704966;83;21480;-59
2021/07/08 03:51:43;;;;;;;21.50;12.28;;;;;;;18.52;92.41;95172.42;1700023;82;21053;-58
2021/07/08 03:54:09;;;;;;;19.70;14.15;;;;;;;18.58;92.16;95169.67;1704196;82;21209;-56
2021/07/08 03:56:36;;;;;;;23.62;14.70;;;;;;;18.62;91.96;95170.26;1707677;84;21035;-56
2021/07/08 03:59:03;;;;;;;23.65;13.05;;;;;;;18.67;91.98;95173.09;1712860;82;21102;-57
2021/07/08 04:01:30;;;;;;;22.77;16.00;;;;;;;18.72;91.50;95175.20;1708797;83;21043;-57
2021/07/08 04:03:57;;;;;;;22.55;14.28;;;;;;;18.74;91.48;95181.66;1705421;84;21007;-57
2021/07/08 04:06:24;;;;;;;24.15;15.30;;;;;;;18.79;91.16;95176.16;1703202;83;21083;-54
2021/07/08 04:08:52;;;;;;;29.20;15.65;;;;;;;18.84;90.96;95182.41;1676886;82;20974;-54
2021/07/08 04:11:18;;;;;;;23.22;15.90;;;;;;;18.92;90.48;95184.92;1673724;83;20971;-54
2021/07/08 04:13:45;;;;;;;29.20;16.57;;;;;;;18.99;90.13;95180.30;1649547;85;21128;-55
2021/07/08 04:16:13;;;;;;;32.05;17.65;;;;;;;19.11;89.91;95186.15;1675606;84;21588;-55
2021/07/08 04:18:40;;;;;;;29.18;17.17;;;;;;;19.26;89.32;95185.45;1621414;85;21872;-55
2021/07/08 04:21:07;;;;;;;36.40;17.67;;;;;;;19.37;88.26;95188.33;1678377;85;21427;-54
2021/07/08 04:23:34;;;;;;;30.12;15.23;;;;;;;19.43;87.60;95185.59;1655274;85;21117;-55
2021/07/08 04:26:01;;;;;;;33.85;17.17;;;;;;;19.47;87.09;95188.92;1679517;84;20970;-55
2021/07/08 04:28:29;;;;;;;35.78;16.12;;;;;;;19.46;86.73;95185.38;1657001;85;21110;-56
2021/07/08 04:30:56;;;;;;;37.28;17.15;;;;;;;19.50;86.46;95191.50;1707805;83;21788;-55
2021/07/08 04:33:23;;;;;;;37.03;17.65;;;;;;;19.56;86.12;95188.11;1707972;84;21069;-55
2021/07/08 04:35:50;;;;;;;35.88;17.55;;;;;;;19.61;85.90;95199.98;1703146;83;33502;-54
2021/07/08 04:38:16;;;;;;;33.38;16.87;;;;;;;19.62;85.51;95197.94;1681209;83;21526;-55
2021/07/08 04:40:43;;;;;;;25.20;15.72;;;;;;;19.62;85.26;95198.72;1659278;85;21628;-56
2021/07/08 04:43:11;;;;;;;26.33;14.07;;;;;;;19.63;84.88;95201.64;1709793;83;21133;-56
2021/07/08 04:45:38;;;;;;;29.85;18.73;;;;;;;19.64;84.71;95192.01;1706876;83;20972;-55
2021/07/08 04:48:07;;;;;;;29.23;14.75;;;;;;;19.63;84.89;95200.25;1711423;82;21470;-54
2021/07/08 04:50:34;;;;;;;27.37;17.35;;;;;;;19.65;84.84;95200.52;1707583;83;21028;-54
2021/07/08 04:53:01;;;;;;;45.58;19.25;;;;;;;19.64;84.65;95202.39;1703932;82;21438;-56
2021/07/08 04:55:29;;;;;;;80.40;19.87;;;;;;;19.61;84.49;95206.96;1704967;82;21453;-55
2021/07/08 04:57:57;;;;;;;34.95;19.17;;;;;;;19.60;84.42;95206.05;1710754;82;21002;-57
2021/07/08 05:00:24;;;;;;;34.13;18.87;;;;;;;19.62;84.41;95209.11;1712072;82;21045;-56
2021/07/08 05:02:52;;;;;;;30.55;15.45;;;;;;;19.64;84.34;95208.77;1719216;82;20966;-56
2021/07/08 05:05:19;;;;;;;26.85;15.90;;;;;;;19.68;84.38;95213.48;1698529;81;21008;-55
2021/07/08 05:07:46;;;;;;;32.08;15.25;;;;;;;19.75;84.14;95214.42;1699086;83;21525;-56
2021/07/08 05:10:16;;;;;;;32.83;16.60;;;;;;;19.84;83.86;95212.86;1710555;83;21000;-56
2021/07/08 05:12:44;;;;;;;25.97;14.13;;;;;;;19.90;83.52;95214.30;1711716;82;21009;-56
2021/07/08 05:15:14;;;;;;;23.87;13.98;;;;;;;19.93;83.49;95222.44;1713135;82;21009;-57
2021/07/08 05:17:41;;;;;;;25.97;15.05;;;;;;;19.96;83.44;95210.27;1711132;82;21112;-58
2021/07/08 05:20:10;;;;;;;34.18;15.98;;;;;;;20.02;83.31;95226.48;1705329;82;21972;-54
2021/07/08 05:22:38;;;;;;;22.60;14.53;;;;;;;20.07;83.13;95218.77;1708135;83;21154;-55
2021/07/08 05:25:08;;;;;;;21.97;13.05;;;;;;;20.15;82.92;95221.23;1713100;82;21070;-56
2021/07/08 05:27:35;;;;;;;23.35;11.93;;;;;;;20.22;82.54;95219.39;1713455;83;21006;-56
2021/07/08 05:30:07;;;;;;;18.48;13.28;;;;;;;20.28;82.28;95225.16;1700837;82;21148;-56
2021/07/08 05:32:34;;;;;;;18.33;13.63;;;;;;;20.32;81.69;95222.89;1680715;84;21168;-56
2021/07/08 05:35:01;;;;;;;23.80;13.93;;;;;;;20.38;81.45;95227.13;1702820;82;21099;-56
2021/07/08 05:37:28;;;;;;;21.70;13.08;;;;;;;20.46;81.14;95228.17;1716241;82;21057;-55
2021/07/08 05:39:55;;;;;;;23.80;13.32;;;;;;;20.52;80.96;95223.39;1708755;83;21490;-55
2021/07/08 05:42:22;;;;;;;21.07;13.80;;;;;;;20.58;80.81;95224.18;1709700;83;21071;-55
2021/07/08 05:44:48;;;;;;;22.60;13.58;;;;;;;20.66;80.75;95219.64;1713790;81;21155;-55
2021/07/08 05:47:16;;;;;;;20.02;13.48;;;;;;;20.72;80.41;95224.00;1694721;82;21002;-59
2021/07/08 05:49:43;;;;;;;23.22;15.50;;;;;;;20.83;80.31;95223.28;1715745;82;21117;-61
2021/07/08 05:52:10;;;;;;;18.35;14.47;;;;;;;20.94;80.23;95219.17;1722022;81;21092;-62
2021/07/08 05:54:37;;;;;;;22.50;14.78;;;;;;;21.04;80.01;95224.04;1710638;81;21022;-60
2021/07/08 05:57:05;;;;;;;17.65;12.50;;;;;;;21.18;79.95;95222.30;1729069;81;21145;-60
2021/07/08 05:59:31;;;;;;;19.10;11.85;;;;;;;21.30;79.37;95223.87;1702519;81;21065;-59
2021/07/08 06:01:58;;;;;;;21.25;12.95;;;;;;;21.33;78.98;95225.66;1710324;81;22292;-60
2021/07/08 06:04:25;;;;;;;20.55;12.07;;;;;;;21.38;78.79;95224.89;1685318;82;22274;-59
2021/07/08 06:06:52;;;;;;;22.85;13.08;;;;;;;21.44;78.58;95225.69;1711652;81;21288;-59
2021/07/08 06:09:19;;;;;;;20.82;13.30;;;;;;;21.50;78.44;95229.26;1705427;82;21275;-59
2021/07/08 06:11:45;;;;;;;17.40;11.45;;;;;;;21.53;78.42;95223.41;1704972;82;21035;-61
2021/07/08 06:14:12;;;;;;;19.27;10.40;;;;;;;21.61;78.47;95219.45;1706744;82;21393;-59
2021/07/08 06:16:39;;;;;;;15.65;12.05;;;;;;;21.71;78.41;95217.98;1702938;81;21570;-62
2021/07/08 06:19:06;;;;;;;13.15;10.55;;;;;;;21.79;77.98;95217.59;1698838;82;21195;-57
2021/07/08 06:21:33;;;;;;;13.85;11.20;;;;;;;21.88;77.73;95217.36;1698802;82;21471;-59
2021/07/08 06:24:01;;;;;;;15.95;12.15;;;;;;;21.94;77.46;95212.51;1705022;81;21051;-57
2021/07/08 06:26:27;;;;;;;19.10;10.80;;;;;;;22.03;77.62;95213.67;1709456;81;21055;-60
2021/07/08 06:28:53;;;;;;;20.10;11.78;;;;;;;22.16;77.84;95217.47;1703719;81;21917;-58
2021/07/08 06:31:20;;;;;;;11.53;9.13;;;;;;;22.32;77.39;95213.23;1692065;82;21154;-57
2021/07/08 06:33:48;;;;;;;14.53;11.00;;;;;;;22.45;76.71;95216.31;1709417;82;21137;-57
2021/07/08 06:36:16;;;;;;;13.32;10.93;;;;;;;22.58;76.32;95215.77;1702897;81;21065;-57
2021/07/08 06:38:43;;;;;;;15.95;10.98;;;;;;;22.72;76.43;95216.89;1682694;82;21084;-60
2021/07/08 06:41:09;;;;;;;14.83;11.63;;;;;;;22.86;75.95;95216.47;1651069;83;21563;-63
2021/07/08 06:43:36;;;;;;;13.22;10.68;;;;;;;22.99;75.10;95208.26;1705714;82;21062;-57
2021/07/08 06:46:04;;;;;;;15.23;11.08;;;;;;;23.10;74.74;95211.78;1710029;82;21743;-58
2021/07/08 06:48:31;;;;;;;16.60;11.33;;;;;;;23.21;74.59;95214.55;1702086;81;21092;-59
2021/07/08 06:50:59;;;;;;;12.70;9.75;;;;;;;23.31;74.76;95205.17;1691793;82;21079;-59
2021/07/08 06:53:26;;;;;;;13.70;11.33;;;;;;;23.42;73.86;95207.28;1706523;82;21141;-60
2021/07/08 06:55:52;;;;;;;12.93;9.90;;;;;;;23.52;73.28;95207.73;1698670;82;21153;-59
2021/07/08 06:58:19;;;;;;;13.18;9.78;;;;;;;23.64;73.21;95208.56;1695688;82;21145;-60
2021/07/08 07:00:46;;;;;;;11.48;9.65;;;;;;;23.75;72.33;95197.89;1694943;81;21049;-61
2021/07/08 07:03:14;;;;;;;10.55;9.55;;;;;;;23.86;71.73;95205.63;1708104;81;21078;-60
2021/07/08 07:05:40;;;;;;;10.75;9.40;;;;;;;23.98;71.86;95200.67;1698301;81;20982;-58
2021/07/08 07:08:07;;;;;;;10.63;9.43;;;;;;;24.07;70.98;95196.88;1700556;82;21154;-58
2021/07/08 07:10:33;;;;;;;11.43;9.78;;;;;;;24.14;69.93;95191.45;1705183;81;21241;-56
2021/07/08 07:13:02;;;;;;;11.57;9.50;;;;;;;24.22;69.19;95198.67;1709093;81;21069;-60
2021/07/08 07:15:29;;;;;;;18.52;11.00;;;;;;;24.32;69.07;95197.03;1667037;83;21547;-63
2021/07/08 07:17:57;;;;;;;10.45;8.95;;;;;;;24.43;68.58;95200.49;1695178;82;21110;-59
2021/07/08 07:20:24;;;;;;;11.25;9.98;;;;;;;24.55;68.13;95201.20;1705243;80;21022;-69
2021/07/08 07:22:51;;;;;;;15.48;10.45;;;;;;;24.63;68.15;95197.91;1701398;82;21124;-59
2021/07/08 07:25:21;;;;;;;12.63;9.58;;;;;;;24.73;67.86;95199.09;1698996;82;21126;-57
2021/07/08 07:27:50;;;;;;;13.48;9.35;;;;;;;24.85;68.34;95201.24;1705844;82;21117;-58
2021/07/08 07:30:18;;;;;;;18.00;9.53;;;;;;;24.96;67.69;95197.53;1690715;83;21045;-55
2021/07/08 07:32:46;;;;;;;15.68;10.13;;;;;;;25.05;66.60;95197.15;1683621;83;21112;-55
2021/07/08 07:35:13;;;;;;;11.68;9.43;;;;;;;25.13;66.61;95210.10;1708548;82;21066;-54
2021/07/08 07:37:40;;;;;;;18.45;12.60;;;;;;;25.24;65.72;95202.19;1696104;82;22117;-58
2021/07/08 07:40:08;;;;;;;14.00;10.18;;;;;;;25.35;65.15;95204.23;1690730;82;21077;-57
2021/07/08 07:42:34;;;;;;;12.15;9.20;;;;;;;25.48;64.74;95209.19;1694022;82;21014;-55
2021/07/08 07:45:03;;;;;;;12.82;9.13;;;;;;;25.61;64.15;95200.78;1713152;81;20972;-56
2021/07/08 07:47:30;;;;;;;10.88;8.25;;;;;;;25.72;64.28;95193.58;1698550;82;21146;-58
2021/07/08 07:49:58;;;;;;;12.78;9.73;;;;;;;25.86;64.36;95202.98;1725413;82;20990;-59
2021/07/08 07:52:26;;;;;;;12.58;9.23;;;;;;;26.00;63.95;95205.98;1716127;82;21070;-60
2021/07/08 07:54:53;;;;;;;12.05;10.15;;;;;;;26.11;63.35;95200.91;1708425;82;20989;-59
2021/07/08 07:57:20;;;;;;;10.13;8.53;;;;;;;26.21;62.18;95203.45;1702303;82;21053;-58
2021/07/08 07:59:46;;;;;;;11.75;9.15;;;;;;;26.27;61.60;95201.29;1694550;82;21104;-56
2021/07/08 08:02:13;;;;;;;12.78;8.65;;;;;;;26.37;62.46;95195.36;1711579;81;22509;-59
2021/07/08 08:10:12;;;;;;;10.72;7.95;;;;;;;26.57;58.64;95197.59;1710823;82;21121;-57
2021/07/08 08:12:39;;;;;;;14.55;9.13;;;;;;;26.60;58.85;95200.73;1700110;83;21212;-58
2021/07/08 08:15:07;;;;;;;9.40;7.45;;;;;;;26.69;59.08;95196.73;1694472;81;21439;-60
2021/07/08 08:17:36;;;;;;;11.33;7.87;;;;;;;26.78;57.58;95196.28;1704002;81;21512;-58
2021/07/08 08:20:07;;;;;;;7.85;6.97;;;;;;;26.81;57.35;95194.56;1681053;83;21129;-59
2021/07/08 08:22:37;;;;;;;11.93;7.30;;;;;;;26.90;57.36;95191.32;1679354;82;21049;-59
2021/07/08 08:25:05;;;;;;;7.40;6.67;;;;;;;27.02;57.25;95188.36;1678765;84;21172;-56
2021/07/08 08:27:32;;;;;;;6.90;6.22;;;;;;;27.06;55.47;95194.44;1681003;83;21578;-58
2021/07/08 08:29:59;;;;;;;8.80;6.58;;;;;;;27.08;55.39;95190.44;1674894;83;21030;-59
2021/07/08 08:32:26;;;;;;;6.97;5.97;;;;;;;27.15;57.03;95198.91;1683103;82;21026;-59
2021/07/08 08:34:52;;;;;;;8.93;6.92;;;;;;;27.18;56.08;95195.77;1685471;83;21221;-59
2021/07/08 08:37:19;;;;;;;7.70;6.90;;;;;;;27.19;56.33;95197.29;1686081;83;21137;-61
2021/07/08 08:39:46;;;;;;;7.33;6.62;;;;;;;27.23;56.61;95196.30;1675059;83;21129;-59
2021/07/08 08:42:13;;;;;;;8.95;6.80;;;;;;;27.35;55.98;95204.66;1677642;82;21125;-58
2021/07/08 08:44:41;;;;;;;11.33;7.83;;;;;;;27.45;57.00;95202.14;1669762;83;21450;-60
2021/07/08 08:47:11;;;;;;;8.08;7.37;;;;;;;27.54;56.49;95193.97;1659139;84;20980;-57
2021/07/08 08:49:41;;;;;;;8.23;6.58;;;;;;;27.67;57.61;95191.11;1691385;83;21147;-57
2021/07/08 08:52:10;;;;;;;11.25;7.90;;;;;;;27.80;56.34;95187.50;1682707;83;20995;-60
2021/07/08 08:54:39;;;;;;;13.28;7.65;;;;;;;27.90;54.52;95185.06;1683819;84;21026;-59
2021/07/08 08:57:06;;;;;;;13.90;9.00;;;;;;;28.01;55.03;95184.81;1674313;83;21045;-59
2021/07/08 08:59:34;;;;;;;8.38;6.67;;;;;;;28.13;55.79;95188.23;1682449;83;22000;-60
2021/07/08 09:02:17;;;;;;;9.35;7.25;;;;;;;28.20;55.24;95188.20;1689336;83;21103;-58
2021/07/08 09:04:45;;;;;;;10.50;7.00;;;;;;;28.17;52.75;95186.45;1681285;83;21082;-60
2021/07/08 09:07:24;;;;;;;8.15;6.80;;;;;;;28.16;52.60;95186.35;1682580;83;21477;-57
2021/07/08 09:09:57;;;;;;;8.40;6.90;;;;;;;28.23;53.92;95186.42;1677543;84;21600;-58
2021/07/08 09:12:24;;;;;;;10.18;6.60;;;;;;;28.35;53.43;95191.17;1684786;83;21093;-58
2021/07/08 09:15:11;;;;;;;9.88;7.08;;;;;;;28.47;51.63;95188.17;1676355;83;21156;-56
2021/07/08 09:17:44;;;;;;;13.45;6.12;;;;;;;28.60;51.43;95192.34;1677996;83;21155;-61
2021/07/08 09:20:14;;;;;;;9.60;6.95;;;;;;;28.71;49.53;95191.39;1683606;83;21052;-59
2021/07/08 09:23:07;;;;;;;8.78;7.42;;;;;;;28.79;52.33;95189.36;1687459;82;21087;-61
2021/07/08 09:25:39;;;;;;;6.17;5.58;;;;;;;28.87;51.54;95187.35;1580511;87;21181;-59
2021/07/08 09:28:21;;;;;;;15.48;7.28;;;;;;;28.99;49.99;95196.33;1659728;84;21308;-58
2021/07/08 09:31:01;;;;;;;8.43;6.10;;;;;;;29.03;48.06;95191.06;1675503;83;21034;-59
2021/07/08 09:33:39;;;;;;;22.48;6.70;;;;;;;29.02;46.52;95190.31;1696900;82;21076;-56
2021/07/08 09:36:12;;;;;;;5.83;5.28;;;;;;;29.02;46.75;95181.81;1667747;84;21056;-58
2021/07/08 09:38:48;;;;;;;7.50;6.12;;;;;;;29.04;50.16;95188.33;1680022;83;21449;-59
2021/07/08 09:41:25;;;;;;;7.42;6.33;;;;;;;29.09;49.51;95184.56;1681634;83;21113;-59
2021/07/08 09:43:54;;;;;;;7.90;6.22;;;;;;;29.17;50.69;95187.55;1678851;84;21180;-58
2021/07/08 09:46:35;;;;;;;8.28;5.03;;;;;;;29.21;50.73;95182.94;1676988;83;21476;-59
2021/07/08 09:49:09;;;;;;;7.73;5.40;;;;;;;29.24;47.47;95176.15;1684740;83;21145;-57
2021/07/08 09:51:37;;;;;;;10.08;6.37;;;;;;;29.26;47.66;95177.77;1666250;83;22405;-60
2021/07/08 09:54:06;;;;;;;8.98;4.87;;;;;;;29.35;46.33;95177.25;1684458;82;21838;-58
2021/07/08 09:56:49;;;;;;;10.23;5.97;;;;;;;29.38;46.38;95174.72;1656057;85;21196;-61
2021/07/08 09:59:22;;;;;;;11.97;5.35;;;;;;;29.34;47.30;95180.00;1682436;83;21069;-58
2021/07/08 10:01:56;;;;;;;7.00;5.97;;;;;;;29.35;47.58;95175.84;1675812;83;21122;-58
2021/07/08 10:04:24;;;;;;;6.55;4.37;;;;;;;29.39;47.81;95177.00;1643494;83;21062;-60
2021/07/08 10:06:53;;;;;;;6.62;4.78;;;;;;;29.50;45.67;95178.10;1662281;84;21195;-55
2021/07/08 10:09:20;;;;;;;9.25;5.85;;;;;;;29.51;43.99;95173.94;1651918;86;20946;-57
2021/07/08 10:11:52;;;;;;;12.37;8.45;;;;;;;29.52;45.17;95174.03;1698042;83;21053;-54
2021/07/08 10:14:21;;;;;;;11.07;6.47;;;;;;;29.59;45.93;95173.33;1672743;83;22394;-59
2021/07/08 10:16:50;;;;;;;10.30;5.58;;;;;;;29.70;46.37;95169.39;1687966;82;21108;-57
2021/07/08 10:19:22;;;;;;;8.65;5.75;;;;;;;29.76;45.50;95173.57;1711397;82;21137;-60
2021/07/08 10:21:49;;;;;;;;;;;;;;;29.71;45.12;95165.97;1685784;83;21064;-61
2021/07/08 10:24:17;;;;;;;6.03;4.90;;;;;;;29.64;44.32;95171.65;1699564;82;20677;-60
2021/07/08 10:26:45;;;;;;;7.95;4.45;;;;;;;29.59;44.62;95171.14;1715503;83;21479;-58
2021/07/08 10:29:13;;;;;;;5.42;4.87;;;;;;;29.65;45.07;95166.07;1713694;83;21541;-59
2021/07/08 10:31:41;;;;;;;8.73;4.95;;;;;;;29.74;43.94;95171.19;1698963;84;21226;-56
2021/07/08 10:34:14;;;;;;;9.35;4.80;;;;;;;29.83;44.30;95170.66;1679032;83;21148;-56
2021/07/08 10:36:48;;;;;;;7.83;5.15;;;;;;;29.92;43.84;95163.11;1679851;84;21029;-59
2021/07/08 10:39:21;;;;;;;7.97;5.50;;;;;;;30.10;44.02;95156.35;1678950;83;21630;-57
2021/07/08 10:41:52;;;;;;;7.53;5.70;;;;;;;30.28;44.23;95157.33;1678100;83;21515;-58
2021/07/08 10:44:47;;;;;;;6.97;4.42;;;;;;;30.47;46.60;95164.14;1677518;83;21132;-57
2021/07/08 10:47:40;;;;;;;8.20;4.50;;;;;;;30.84;46.18;95156.28;1675972;84;22246;-58
2021/07/08 10:50:42;;;;;;;11.43;4.97;;;;;;;31.17;45.53;95160.80;1689362;83;22103;-59
2021/07/08 10:53:26;;;;;;;6.40;4.97;;;;;;;31.48;44.51;95160.02;1680219;82;21058;-57
2021/07/08 10:55:58;;;;;;;5.67;4.45;;;;;;;31.79;44.61;95156.48;1684627;82;22208;-57
2021/07/08 10:58:41;;;;;;;;;;;;;;;32.03;43.24;95154.37;1688274;83;21105;-57
2021/07/08 11:01:25;;;;;;;7.12;4.50;;;;;;;32.25;42.16;95154.91;1684609;84;20210;-56
2021/07/08 11:04:01;;;;;;;8.30;5.87;;;;;;;32.14;43.22;95154.67;1697011;84;21073;-57
2021/07/08 11:06:34;;;;;;;8.28;5.50;;;;;;;31.79;42.53;95159.33;1691571;84;21130;-57
2021/07/08 11:09:09;;;;;;;9.08;5.08;;;;;;;31.37;44.04;95151.89;1686735;83;21042;-57
2021/07/08 11:11:49;;;;;;;7.80;5.70;;;;;;;31.00;44.68;95159.19;1695608;83;21265;-58
2021/07/08 11:14:25;;;;;;;5.95;4.95;;;;;;;31.10;44.69;95153.02;1677177;84;21070;-58
2021/07/08 11:17:04;;;;;;;7.17;4.67;;;;;;;31.36;46.49;95154.00;1676975;84;21163;-59
2021/07/08 11:19:35;;;;;;;8.63;5.53;;;;;;;31.89;45.66;95147.42;1685029;84;21060;-58
2021/07/08 11:22:26;;;;;;;6.17;4.95;;;;;;;32.45;43.30;95153.80;1683656;83;21070;-61
2021/07/08 11:24:54;;;;;;;10.82;5.50;;;;;;;32.91;43.68;95144.95;1678198;84;21958;-58
2021/07/08 11:27:33;;;;;;;7.08;4.58;;;;;;;33.38;41.91;95145.45;1688924;83;21049;-60
2021/07/08 11:30:17;;;;;;;5.55;4.62;;;;;;;33.76;41.07;95148.62;1689890;83;21473;-55
2021/07/08 11:32:49;;;;;;;4.40;4.00;;;;;;;34.11;40.70;95147.91;1693380;82;21078;-57
2021/07/08 11:35:20;;;;;;;5.87;4.92;;;;;;;34.27;40.88;95150.66;1689411;82;21045;-60
2021/07/08 11:38:06;;;;;;;6.55;4.92;;;;;;;34.10;39.58;95149.92;1688655;83;21833;-58